sensor_id;sensor_type;location;lat;lon;timestamp;temperature;humidity
9915;DHT22;4996;48.746;9.174;2023-02-01T00:00:00;4.30;99.90
9915;DHT22;4996;48.746;9.174;2023-02-01T00:02:25;4.20;99.90
9915;DHT22;4996;48.746;9.174;2023-02-01T00:04:51;4.10;99.90
9915;DHT22;4996;48.746;9.174;2023-02-01T00:07:16;4.10;99.90
9915;DHT22;4996;48.746;9.174;2023-02-01T00:09:42;4.10;99.90
9915;DHT22;4996;48.746;9.174;2023-02-01T00:12:07;4.40;99.90
9915;DHT22;4996;48.746;9.174;2023-02-01T00:14:33;4.10;99.90
9915;DHT22;4996;48.746;9.174;2023-02-01T00:17:04;4.10;99.90
9915;DHT22;4996;48.746;9.174;2023-02-01T00:19:31;4.30;99.90
9915;DHT22;4996;48.746;9.174;2023-02-01T00:21:57;4.10;99.90
9915;DHT22;4996;48.746;9.174;2023-02-01T00:24:22;4.10;99.90
9915;DHT22;4996;48.746;9.174;2023-02-01T00:26:48;4.50;99.90
9915;DHT22;4996;48.746;9.174;2023-02-01T00:29:17;4.40;99.90
9915;DHT22;4996;48.746;9.174;2023-02-01T00:31:43;4.20;99.90
9915;DHT22;4996;48.746;9.174;2023-02-01T00:34:12;4.50;99.90
9915;DHT22;4996;48.746;9.174;2023-02-01T00:36:38;4.30;99.90
9915;DHT22;4996;48.746;9.174;2023-02-01T00:39:04;4.20;99.90
9915;DHT22;4996;48.746;9.174;2023-02-01T00:41:29;4.20;99.90
9915;DHT22;4996;48.746;9.174;2023-02-01T00:43:55;4.20;99.90
9915;DHT22;4996;48.746;9.174;2023-02-01T00:46:20;4.40;99.90
9915;DHT22;4996;48.746;9.174;2023-02-01T00:48:47;4.10;99.90
9915;DHT22;4996;48.746;9.174;2023-02-01T00:51:15;4.40;99.90
9915;DHT22;4996;48.746;9.174;2023-02-01T00:53:41;4.20;99.90
9915;DHT22;4996;48.746;9.174;2023-02-01T00:56:08;4.40;99.90
9915;DHT22;4996;48.746;9.174;2023-02-01T00:58:33;4.30;99.90
9915;DHT22;4996;48.746;9.174;2023-02-01T01:01:07;4.40;99.90
9915;DHT22;4996;48.746;9.174;2023-02-01T01:03:35;4.50;99.90
9915;DHT22;4996;48.746;9.174;2023-02-01T01:06:05;4.80;99.90
9915;DHT22;4996;48.746;9.174;2023-02-01T01:08:31;4.60;99.90
9915;DHT22;4996;48.746;9.174;2023-02-01T01:10:56;4.40;99.90
9915;DHT22;4996;48.746;9.174;2023-02-01T01:13:22;4.50;99.90
9915;DHT22;4996;48.746;9.174;2023-02-01T01:15:48;4.50;99.90
9915;DHT22;4996;48.746;9.174;2023-02-01T01:18:14;4.50;99.90
9915;DHT22;4996;48.746;9.174;2023-02-01T01:20:40;4.50;99.90
9915;DHT22;4996;48.746;9.174;2023-02-01T01:23:07;4.50;99.90
9915;DHT22;4996;48.746;9.174;2023-02-01T01:25:39;4.50;99.90
9915;DHT22;4996;48.746;9.174;2023-02-01T01:28:06;4.60;99.90
9915;DHT22;4996;48.746;9.174;2023-02-01T01:30:33;4.60;99.90
9915;DHT22;4996;48.746;9.174;2023-02-01T01:32:58;4.70;99.90
9915;DHT22;4996;48.746;9.174;2023-02-01T01:35:24;4.80;99.90
9915;DHT22;4996;48.746;9.174;2023-02-01T01:37:49;4.80;99.90
9915;DHT22;4996;48.746;9.174;2023-02-01T01:40:15;4.90;99.90
9915;DHT22;4996;48.746;9.174;2023-02-01T01:42:42;4.80;99.90
9915;DHT22;4996;48.746;9.174;2023-02-01T01:45:29;4.80;99.90
9915;DHT22;4996;48.746;9.174;2023-02-01T01:48:01;5.00;99.90
9915;DHT22;4996;48.746;9.174;2023-02-01T01:50:32;4.70;99.90
9915;DHT22;4996;48.746;9.174;2023-02-01T01:53:01;4.80;99.90
9915;DHT22;4996;48.746;9.174;2023-02-01T01:55:32;4.80;99.90
9915;DHT22;4996;48.746;9.174;2023-02-01T01:58:01;4.90;99.90
9915;DHT22;4996;48.746;9.174;2023-02-01T02:00:28;4.90;99.90
9915;DHT22;4996;48.746;9.174;2023-02-01T02:02:58;5.00;99.90
9915;DHT22;4996;48.746;9.174;2023-02-01T02:05:24;5.10;99.90
9915;DHT22;4996;48.746;9.174;2023-02-01T02:07:53;5.20;99.90
9915;DHT22;4996;48.746;9.174;2023-02-01T02:10:22;5.10;99.90
9915;DHT22;4996;48.746;9.174;2023-02-01T02:13:07;5.00;99.90
9915;DHT22;4996;48.746;9.174;2023-02-01T02:15:34;5.00;99.90
9915;DHT22;4996;48.746;9.174;2023-02-01T02:18:10;5.00;99.90
9915;DHT22;4996;48.746;9.174;2023-02-01T02:31:36;4.70;99.90
9915;DHT22;4996;48.746;9.174;2023-02-01T02:34:34;4.60;99.90
9915;DHT22;4996;48.746;9.174;2023-02-01T02:40:05;4.70;99.90
9915;DHT22;4996;48.746;9.174;2023-02-01T02:42:42;4.50;99.90
9915;DHT22;4996;48.746;9.174;2023-02-01T02:45:38;4.60;99.90
9915;DHT22;4996;48.746;9.174;2023-02-01T02:48:44;4.60;99.90
9915;DHT22;4996;48.746;9.174;2023-02-01T02:51:34;4.70;99.90
9915;DHT22;4996;48.746;9.174;2023-02-01T02:54:32;4.80;99.90
9915;DHT22;4996;48.746;9.174;2023-02-01T02:57:23;4.80;99.90
9915;DHT22;4996;48.746;9.174;2023-02-01T03:00:14;4.70;99.90
9915;DHT22;4996;48.746;9.174;2023-02-01T03:03:00;4.70;99.90
9915;DHT22;4996;48.746;9.174;2023-02-01T03:05:46;4.80;99.90
9915;DHT22;4996;48.746;9.174;2023-02-01T03:08:26;4.60;99.90
9915;DHT22;4996;48.746;9.174;2023-02-01T03:11:08;4.70;99.90
9915;DHT22;4996;48.746;9.174;2023-02-01T03:16:16;4.80;99.90
9915;DHT22;4996;48.746;9.174;2023-02-01T03:21:33;4.60;99.90
9915;DHT22;4996;48.746;9.174;2023-02-01T03:24:02;4.60;99.90
9915;DHT22;4996;48.746;9.174;2023-02-01T03:26:31;4.80;99.90
9915;DHT22;4996;48.746;9.174;2023-02-01T03:29:05;5.10;99.90
9915;DHT22;4996;48.746;9.174;2023-02-01T03:31:33;5.00;99.90
9915;DHT22;4996;48.746;9.174;2023-02-01T03:33:59;5.00;99.90
9915;DHT22;4996;48.746;9.174;2023-02-01T03:39:29;4.80;99.90
9915;DHT22;4996;48.746;9.174;2023-02-01T03:41:59;4.80;99.90
9915;DHT22;4996;48.746;9.174;2023-02-01T03:44:43;4.80;99.90
9915;DHT22;4996;48.746;9.174;2023-02-01T03:47:21;4.80;99.90
9915;DHT22;4996;48.746;9.174;2023-02-01T03:49:53;4.60;99.90
9915;DHT22;4996;48.746;9.174;2023-02-01T03:52:32;4.70;99.90
9915;DHT22;4996;48.746;9.174;2023-02-01T03:55:00;4.60;99.90
9915;DHT22;4996;48.746;9.174;2023-02-01T03:57:29;4.50;99.90
9915;DHT22;4996;48.746;9.174;2023-02-01T04:00:05;4.50;99.90
9915;DHT22;4996;48.746;9.174;2023-02-01T04:02:31;4.70;99.90
9915;DHT22;4996;48.746;9.174;2023-02-01T04:04:56;4.80;99.90
9915;DHT22;4996;48.746;9.174;2023-02-01T04:07:22;5.00;99.90
9915;DHT22;4996;48.746;9.174;2023-02-01T04:09:47;4.80;99.90
9915;DHT22;4996;48.746;9.174;2023-02-01T04:12:13;4.90;99.90
9915;DHT22;4996;48.746;9.174;2023-02-01T04:14:38;4.90;99.90
9915;DHT22;4996;48.746;9.174;2023-02-01T04:17:04;5.20;99.90
9915;DHT22;4996;48.746;9.174;2023-02-01T04:19:29;4.90;99.90
9915;DHT22;4996;48.746;9.174;2023-02-01T04:21:55;5.10;99.90
9915;DHT22;4996;48.746;9.174;2023-02-01T04:24:20;5.20;99.90
9915;DHT22;4996;48.746;9.174;2023-02-01T04:26:46;5.20;99.90
9915;DHT22;4996;48.746;9.174;2023-02-01T04:29:11;5.10;99.90
9915;DHT22;4996;48.746;9.174;2023-02-01T04:31:37;5.10;99.90
9915;DHT22;4996;48.746;9.174;2023-02-01T04:34:02;5.10;99.90
9915;DHT22;4996;48.746;9.174;2023-02-01T04:36:28;5.20;99.90
9915;DHT22;4996;48.746;9.174;2023-02-01T04:38:53;5.20;99.90
9915;DHT22;4996;48.746;9.174;2023-02-01T04:41:19;5.20;99.90
9915;DHT22;4996;48.746;9.174;2023-02-01T04:43:46;5.20;99.90
9915;DHT22;4996;48.746;9.174;2023-02-01T04:46:12;5.10;99.90
9915;DHT22;4996;48.746;9.174;2023-02-01T04:48:37;5.00;99.90
9915;DHT22;4996;48.746;9.174;2023-02-01T04:51:03;5.10;99.90
9915;DHT22;4996;48.746;9.174;2023-02-01T04:53:28;5.10;99.90
9915;DHT22;4996;48.746;9.174;2023-02-01T04:55:55;5.20;99.90
9915;DHT22;4996;48.746;9.174;2023-02-01T04:58:20;5.20;99.90
9915;DHT22;4996;48.746;9.174;2023-02-01T05:00:46;5.30;99.90
9915;DHT22;4996;48.746;9.174;2023-02-01T05:03:12;5.30;99.90
9915;DHT22;4996;48.746;9.174;2023-02-01T05:05:37;5.30;99.90
9915;DHT22;4996;48.746;9.174;2023-02-01T05:08:03;5.40;99.90
9915;DHT22;4996;48.746;9.174;2023-02-01T05:10:28;5.40;99.90
9915;DHT22;4996;48.746;9.174;2023-02-01T05:12:54;5.30;99.90
9915;DHT22;4996;48.746;9.174;2023-02-01T05:15:38;5.30;99.90
9915;DHT22;4996;48.746;9.174;2023-02-01T05:18:04;5.40;99.90
9915;DHT22;4996;48.746;9.174;2023-02-01T05:20:29;5.50;99.90
9915;DHT22;4996;48.746;9.174;2023-02-01T05:22:55;5.30;99.90
9915;DHT22;4996;48.746;9.174;2023-02-01T05:25:20;5.40;99.90
9915;DHT22;4996;48.746;9.174;2023-02-01T05:27:46;5.40;99.90
9915;DHT22;4996;48.746;9.174;2023-02-01T05:30:12;5.30;99.90
9915;DHT22;4996;48.746;9.174;2023-02-01T05:32:37;5.40;99.90
9915;DHT22;4996;48.746;9.174;2023-02-01T05:35:03;5.40;99.90
9915;DHT22;4996;48.746;9.174;2023-02-01T05:37:28;5.40;99.90
9915;DHT22;4996;48.746;9.174;2023-02-01T05:39:54;5.30;99.90
9915;DHT22;4996;48.746;9.174;2023-02-01T05:42:19;5.30;99.90
9915;DHT22;4996;48.746;9.174;2023-02-01T05:44:45;5.30;99.90
9915;DHT22;4996;48.746;9.174;2023-02-01T05:47:10;5.40;99.90
9915;DHT22;4996;48.746;9.174;2023-02-01T05:49:37;5.30;99.90
9915;DHT22;4996;48.746;9.174;2023-02-01T05:52:03;5.30;99.90
9915;DHT22;4996;48.746;9.174;2023-02-01T05:54:29;5.30;99.90
9915;DHT22;4996;48.746;9.174;2023-02-01T05:56:54;5.30;99.90
9915;DHT22;4996;48.746;9.174;2023-02-01T05:59:20;5.30;99.90
9915;DHT22;4996;48.746;9.174;2023-02-01T06:01:45;5.20;99.90
9915;DHT22;4996;48.746;9.174;2023-02-01T06:04:11;5.20;99.90
9915;DHT22;4996;48.746;9.174;2023-02-01T06:06:36;5.30;99.90
9915;DHT22;4996;48.746;9.174;2023-02-01T06:09:03;5.20;99.90
9915;DHT22;4996;48.746;9.174;2023-02-01T06:11:29;5.20;99.90
9915;DHT22;4996;48.746;9.174;2023-02-01T06:13:54;5.00;99.90
9915;DHT22;4996;48.746;9.174;2023-02-01T06:16:21;5.10;99.90
9915;DHT22;4996;48.746;9.174;2023-02-01T06:18:46;5.10;99.90
9915;DHT22;4996;48.746;9.174;2023-02-01T06:21:12;5.00;99.90
9915;DHT22;4996;48.746;9.174;2023-02-01T06:23:39;4.90;99.90
9915;DHT22;4996;48.746;9.174;2023-02-01T06:26:06;5.00;99.90
9915;DHT22;4996;48.746;9.174;2023-02-01T06:28:35;5.00;99.90
9915;DHT22;4996;48.746;9.174;2023-02-01T06:31:06;4.90;99.90
9915;DHT22;4996;48.746;9.174;2023-02-01T06:33:33;4.90;99.90
9915;DHT22;4996;48.746;9.174;2023-02-01T06:36:00;5.30;99.90
9915;DHT22;4996;48.746;9.174;2023-02-01T06:38:27;5.00;99.90
9915;DHT22;4996;48.746;9.174;2023-02-01T06:40:56;5.00;99.90
9915;DHT22;4996;48.746;9.174;2023-02-01T06:43:23;5.00;99.90
9915;DHT22;4996;48.746;9.174;2023-02-01T06:45:50;5.10;99.90
9915;DHT22;4996;48.746;9.174;2023-02-01T06:48:15;5.10;99.90
9915;DHT22;4996;48.746;9.174;2023-02-01T06:50:41;5.00;99.90
9915;DHT22;4996;48.746;9.174;2023-02-01T06:53:07;5.10;99.90
9915;DHT22;4996;48.746;9.174;2023-02-01T06:55:32;5.10;99.90
9915;DHT22;4996;48.746;9.174;2023-02-01T06:57:58;5.10;99.90
9915;DHT22;4996;48.746;9.174;2023-02-01T07:00:23;5.20;99.90
9915;DHT22;4996;48.746;9.174;2023-02-01T07:02:49;5.30;99.90
9915;DHT22;4996;48.746;9.174;2023-02-01T07:05:15;5.30;99.90
9915;DHT22;4996;48.746;9.174;2023-02-01T07:07:41;5.30;99.90
9915;DHT22;4996;48.746;9.174;2023-02-01T07:10:06;5.30;99.90
9915;DHT22;4996;48.746;9.174;2023-02-01T07:12:32;5.20;99.90
9915;DHT22;4996;48.746;9.174;2023-02-01T07:14:57;5.30;99.90
9915;DHT22;4996;48.746;9.174;2023-02-01T07:17:23;5.40;99.90
9915;DHT22;4996;48.746;9.174;2023-02-01T07:19:49;5.40;99.90
9915;DHT22;4996;48.746;9.174;2023-02-01T07:22:17;5.60;99.90
9915;DHT22;4996;48.746;9.174;2023-02-01T07:24:43;5.70;99.90
9915;DHT22;4996;48.746;9.174;2023-02-01T07:27:09;5.70;99.90
9915;DHT22;4996;48.746;9.174;2023-02-01T07:29:34;5.70;99.90
9915;DHT22;4996;48.746;9.174;2023-02-01T07:32:00;5.40;99.90
9915;DHT22;4996;48.746;9.174;2023-02-01T07:34:26;5.30;99.90
9915;DHT22;4996;48.746;9.174;2023-02-01T07:36:52;5.20;99.90
9915;DHT22;4996;48.746;9.174;2023-02-01T07:39:17;5.30;99.90
9915;DHT22;4996;48.746;9.174;2023-02-01T07:41:43;5.30;99.90
9915;DHT22;4996;48.746;9.174;2023-02-01T07:44:09;5.50;99.90
9915;DHT22;4996;48.746;9.174;2023-02-01T07:46:35;5.40;99.90
9915;DHT22;4996;48.746;9.174;2023-02-01T07:49:01;5.40;99.90
9915;DHT22;4996;48.746;9.174;2023-02-01T07:51:27;5.30;99.90
9915;DHT22;4996;48.746;9.174;2023-02-01T07:53:52;5.40;99.90
9915;DHT22;4996;48.746;9.174;2023-02-01T07:56:19;5.50;99.90
9915;DHT22;4996;48.746;9.174;2023-02-01T07:58:49;5.50;99.90
9915;DHT22;4996;48.746;9.174;2023-02-01T08:01:21;5.60;99.90
9915;DHT22;4996;48.746;9.174;2023-02-01T08:03:51;5.70;99.90
9915;DHT22;4996;48.746;9.174;2023-02-01T08:06:17;5.70;99.90
9915;DHT22;4996;48.746;9.174;2023-02-01T08:08:45;5.70;99.90
9915;DHT22;4996;48.746;9.174;2023-02-01T08:11:12;5.90;99.90
9915;DHT22;4996;48.746;9.174;2023-02-01T08:13:38;5.80;99.90
9915;DHT22;4996;48.746;9.174;2023-02-01T08:16:06;6.00;99.90
9915;DHT22;4996;48.746;9.174;2023-02-01T08:18:32;5.90;99.90
9915;DHT22;4996;48.746;9.174;2023-02-01T08:21:03;5.60;99.90
9915;DHT22;4996;48.746;9.174;2023-02-01T08:23:29;5.80;99.90
9915;DHT22;4996;48.746;9.174;2023-02-01T08:26:13;5.70;99.90
9915;DHT22;4996;48.746;9.174;2023-02-01T08:28:42;5.60;99.90
9915;DHT22;4996;48.746;9.174;2023-02-01T08:31:11;5.60;99.90
9915;DHT22;4996;48.746;9.174;2023-02-01T08:33:37;5.70;99.90
9915;DHT22;4996;48.746;9.174;2023-02-01T08:36:07;5.90;99.90
9915;DHT22;4996;48.746;9.174;2023-02-01T08:38:37;5.80;99.90
9915;DHT22;4996;48.746;9.174;2023-02-01T08:41:09;5.90;99.90
9915;DHT22;4996;48.746;9.174;2023-02-01T08:43:35;5.80;99.90
9915;DHT22;4996;48.746;9.174;2023-02-01T08:46:02;5.90;99.90
9915;DHT22;4996;48.746;9.174;2023-02-01T08:48:27;6.10;99.90
9915;DHT22;4996;48.746;9.174;2023-02-01T08:50:53;6.20;99.90
9915;DHT22;4996;48.746;9.174;2023-02-01T08:53:18;6.30;99.90
9915;DHT22;4996;48.746;9.174;2023-02-01T08:55:46;6.40;99.90
9915;DHT22;4996;48.746;9.174;2023-02-01T08:58:12;6.40;99.90
9915;DHT22;4996;48.746;9.174;2023-02-01T09:00:39;6.50;99.90
9915;DHT22;4996;48.746;9.174;2023-02-01T09:03:05;6.50;99.90
9915;DHT22;4996;48.746;9.174;2023-02-01T09:05:30;6.50;99.90
9915;DHT22;4996;48.746;9.174;2023-02-01T09:07:56;6.50;99.90
9915;DHT22;4996;48.746;9.174;2023-02-01T09:10:22;6.50;99.90
9915;DHT22;4996;48.746;9.174;2023-02-01T09:12:47;6.60;99.90
9915;DHT22;4996;48.746;9.174;2023-02-01T09:15:13;6.70;99.90
9915;DHT22;4996;48.746;9.174;2023-02-01T09:17:38;6.70;99.90
9915;DHT22;4996;48.746;9.174;2023-02-01T09:20:05;6.80;99.90
9915;DHT22;4996;48.746;9.174;2023-02-01T09:22:30;6.70;99.90
9915;DHT22;4996;48.746;9.174;2023-02-01T09:24:56;6.50;99.90
9915;DHT22;4996;48.746;9.174;2023-02-01T09:27:21;6.50;99.90
9915;DHT22;4996;48.746;9.174;2023-02-01T09:29:47;6.50;99.90
9915;DHT22;4996;48.746;9.174;2023-02-01T09:32:18;6.60;99.90
9915;DHT22;4996;48.746;9.174;2023-02-01T09:34:44;6.70;99.90
9915;DHT22;4996;48.746;9.174;2023-02-01T09:37:09;6.70;99.90
9915;DHT22;4996;48.746;9.174;2023-02-01T09:39:35;6.70;99.90
9915;DHT22;4996;48.746;9.174;2023-02-01T09:47:18;6.70;99.90
9915;DHT22;4996;48.746;9.174;2023-02-01T09:49:54;6.90;99.90
9915;DHT22;4996;48.746;9.174;2023-02-01T09:52:28;6.90;99.90
9915;DHT22;4996;48.746;9.174;2023-02-01T09:55:00;6.90;99.90
9915;DHT22;4996;48.746;9.174;2023-02-01T09:57:56;6.70;99.90
9915;DHT22;4996;48.746;9.174;2023-02-01T10:00:25;6.70;99.90
9915;DHT22;4996;48.746;9.174;2023-02-01T10:02:54;6.90;99.90
9915;DHT22;4996;48.746;9.174;2023-02-01T10:08:01;7.10;99.90
9915;DHT22;4996;48.746;9.174;2023-02-01T10:10:37;7.00;99.90
9915;DHT22;4996;48.746;9.174;2023-02-01T10:16:16;6.70;99.90
9915;DHT22;4996;48.746;9.174;2023-02-01T10:21:41;6.80;99.90
9915;DHT22;4996;48.746;9.174;2023-02-01T10:24:20;6.80;99.90
9915;DHT22;4996;48.746;9.174;2023-02-01T10:27:17;7.00;99.90
9915;DHT22;4996;48.746;9.174;2023-02-01T10:29:48;6.90;99.90
9915;DHT22;4996;48.746;9.174;2023-02-01T10:32:28;6.90;99.90
9915;DHT22;4996;48.746;9.174;2023-02-01T10:35:15;7.10;99.90
9915;DHT22;4996;48.746;9.174;2023-02-01T10:37:42;7.10;99.90
9915;DHT22;4996;48.746;9.174;2023-02-01T10:40:23;7.10;99.90
9915;DHT22;4996;48.746;9.174;2023-02-01T10:42:52;7.20;99.90
9915;DHT22;4996;48.746;9.174;2023-02-01T10:45:20;7.20;99.90
9915;DHT22;4996;48.746;9.174;2023-02-01T10:47:48;7.00;99.90
9915;DHT22;4996;48.746;9.174;2023-02-01T10:50:44;7.20;99.90
9915;DHT22;4996;48.746;9.174;2023-02-01T10:56:10;6.70;99.90
9915;DHT22;4996;48.746;9.174;2023-02-01T10:58:42;6.70;99.90
9915;DHT22;4996;48.746;9.174;2023-02-01T11:01:10;6.70;99.90
9915;DHT22;4996;48.746;9.174;2023-02-01T11:03:42;6.70;99.90
9915;DHT22;4996;48.746;9.174;2023-02-01T11:06:22;6.80;99.90
9915;DHT22;4996;48.746;9.174;2023-02-01T11:08:51;6.70;99.90
9915;DHT22;4996;48.746;9.174;2023-02-01T11:11:17;6.50;99.90
9915;DHT22;4996;48.746;9.174;2023-02-01T11:13:43;6.60;99.90
9915;DHT22;4996;48.746;9.174;2023-02-01T11:16:14;6.90;99.90
9915;DHT22;4996;48.746;9.174;2023-02-01T11:18:40;6.70;99.90
9915;DHT22;4996;48.746;9.174;2023-02-01T11:21:08;7.00;99.90
9915;DHT22;4996;48.746;9.174;2023-02-01T11:23:43;7.00;99.90
9915;DHT22;4996;48.746;9.174;2023-02-01T11:26:14;7.00;99.90
9915;DHT22;4996;48.746;9.174;2023-02-01T11:28:47;7.10;99.90
9915;DHT22;4996;48.746;9.174;2023-02-01T11:31:15;7.20;99.90
9915;DHT22;4996;48.746;9.174;2023-02-01T11:33:48;7.40;99.90
9915;DHT22;4996;48.746;9.174;2023-02-01T11:36:24;7.40;99.90
9915;DHT22;4996;48.746;9.174;2023-02-01T11:41:26;6.80;99.90
9915;DHT22;4996;48.746;9.174;2023-02-01T11:43:53;6.80;99.90
9915;DHT22;4996;48.746;9.174;2023-02-01T11:46:19;6.90;99.90
9915;DHT22;4996;48.746;9.174;2023-02-01T11:48:50;7.10;99.90
9915;DHT22;4996;48.746;9.174;2023-02-01T11:51:28;7.10;99.90
9915;DHT22;4996;48.746;9.174;2023-02-01T11:59:55;7.10;99.90
9915;DHT22;4996;48.746;9.174;2023-02-01T12:02:38;7.40;99.90
9915;DHT22;4996;48.746;9.174;2023-02-01T12:08:22;7.30;99.90
9915;DHT22;4996;48.746;9.174;2023-02-01T12:26:47;7.20;99.90
9915;DHT22;4996;48.746;9.174;2023-02-01T12:29:39;7.30;99.90
9915;DHT22;4996;48.746;9.174;2023-02-01T12:35:29;7.00;99.90
9915;DHT22;4996;48.746;9.174;2023-02-01T12:43:51;6.50;99.90
9915;DHT22;4996;48.746;9.174;2023-02-01T12:46:25;6.60;99.90
9915;DHT22;4996;48.746;9.174;2023-02-01T12:49:22;6.50;99.90
9915;DHT22;4996;48.746;9.174;2023-02-01T12:51:54;6.60;99.90
9915;DHT22;4996;48.746;9.174;2023-02-01T12:54:33;6.70;99.90
9915;DHT22;4996;48.746;9.174;2023-02-01T12:57:05;6.90;99.90
9915;DHT22;4996;48.746;9.174;2023-02-01T12:59:37;6.90;99.90
9915;DHT22;4996;48.746;9.174;2023-02-01T13:02:37;6.70;99.90
9915;DHT22;4996;48.746;9.174;2023-02-01T13:05:20;6.80;99.90
9915;DHT22;4996;48.746;9.174;2023-02-01T13:07:53;6.90;99.90
9915;DHT22;4996;48.746;9.174;2023-02-01T13:13:42;7.20;99.90
9915;DHT22;4996;48.746;9.174;2023-02-01T13:16:06;7.20;99.90
9915;DHT22;4996;48.746;9.174;2023-02-01T13:18:41;7.10;99.90
9915;DHT22;4996;48.746;9.174;2023-02-01T13:21:16;6.80;99.90
9915;DHT22;4996;48.746;9.174;2023-02-01T13:23:46;6.90;99.90
9915;DHT22;4996;48.746;9.174;2023-02-01T13:26:12;7.00;99.90
9915;DHT22;4996;48.746;9.174;2023-02-01T13:28:42;6.90;99.90
9915;DHT22;4996;48.746;9.174;2023-02-01T13:39:48;6.50;99.90
9915;DHT22;4996;48.746;9.174;2023-02-01T13:44:58;6.90;99.90
9915;DHT22;4996;48.746;9.174;2023-02-01T13:47:30;7.00;99.90
9915;DHT22;4996;48.746;9.174;2023-02-01T13:50:00;6.80;99.90
9915;DHT22;4996;48.746;9.174;2023-02-01T13:52:37;6.80;99.90
9915;DHT22;4996;48.746;9.174;2023-02-01T13:57:40;6.90;99.90
9915;DHT22;4996;48.746;9.174;2023-02-01T14:13:37;6.60;99.90
9915;DHT22;4996;48.746;9.174;2023-02-01T14:26:43;6.70;99.90
9915;DHT22;4996;48.746;9.174;2023-02-01T14:29:20;6.60;99.90
9915;DHT22;4996;48.746;9.174;2023-02-01T14:32:03;6.40;99.90
9915;DHT22;4996;48.746;9.174;2023-02-01T14:37:12;6.20;99.90
9915;DHT22;4996;48.746;9.174;2023-02-01T14:40:00;6.30;99.90
9915;DHT22;4996;48.746;9.174;2023-02-01T14:53:15;6.40;99.90
9915;DHT22;4996;48.746;9.174;2023-02-01T14:59:00;6.20;99.90
9915;DHT22;4996;48.746;9.174;2023-02-01T15:01:30;6.10;99.90
9915;DHT22;4996;48.746;9.174;2023-02-01T15:04:12;6.30;99.90
9915;DHT22;4996;48.746;9.174;2023-02-01T15:06:52;6.40;99.90
9915;DHT22;4996;48.746;9.174;2023-02-01T15:09:42;6.30;99.90
9915;DHT22;4996;48.746;9.174;2023-02-01T15:14:41;6.40;99.90
9915;DHT22;4996;48.746;9.174;2023-02-01T15:17:23;6.30;99.90
9915;DHT22;4996;48.746;9.174;2023-02-01T15:19:56;6.40;99.90
9915;DHT22;4996;48.746;9.174;2023-02-01T15:22:22;6.50;99.90
9915;DHT22;4996;48.746;9.174;2023-02-01T15:24:56;6.30;99.90
9915;DHT22;4996;48.746;9.174;2023-02-01T15:27:23;6.40;99.90
9915;DHT22;4996;48.746;9.174;2023-02-01T15:29:49;6.30;99.90
9915;DHT22;4996;48.746;9.174;2023-02-01T15:32:33;6.40;99.90
9915;DHT22;4996;48.746;9.174;2023-02-01T15:35:00;6.50;99.90
9915;DHT22;4996;48.746;9.174;2023-02-01T15:37:27;6.50;99.90
9915;DHT22;4996;48.746;9.174;2023-02-01T15:40:19;6.40;99.90
9915;DHT22;4996;48.746;9.174;2023-02-01T15:42:55;6.20;99.90
9915;DHT22;4996;48.746;9.174;2023-02-01T15:45:25;6.20;99.90
9915;DHT22;4996;48.746;9.174;2023-02-01T15:47:53;6.30;99.90
9915;DHT22;4996;48.746;9.174;2023-02-01T15:50:20;6.30;99.90
9915;DHT22;4996;48.746;9.174;2023-02-01T15:52:48;6.40;99.90
9915;DHT22;4996;48.746;9.174;2023-02-01T15:55:37;6.40;99.90
9915;DHT22;4996;48.746;9.174;2023-02-01T15:58:08;6.50;99.90
9915;DHT22;4996;48.746;9.174;2023-02-01T16:00:47;6.50;99.90
9915;DHT22;4996;48.746;9.174;2023-02-01T16:03:41;6.40;99.90
9915;DHT22;4996;48.746;9.174;2023-02-01T16:09:09;6.30;99.90
9915;DHT22;4996;48.746;9.174;2023-02-01T16:11:42;6.30;99.90
9915;DHT22;4996;48.746;9.174;2023-02-01T16:14:11;6.30;99.90
9915;DHT22;4996;48.746;9.174;2023-02-01T16:16:37;6.30;99.90
9915;DHT22;4996;48.746;9.174;2023-02-01T16:19:02;6.20;99.90
9915;DHT22;4996;48.746;9.174;2023-02-01T16:21:28;6.20;99.90
9915;DHT22;4996;48.746;9.174;2023-02-01T16:23:54;6.10;99.90
9915;DHT22;4996;48.746;9.174;2023-02-01T16:26:20;6.30;99.90
9915;DHT22;4996;48.746;9.174;2023-02-01T16:28:45;6.40;99.90
9915;DHT22;4996;48.746;9.174;2023-02-01T16:31:14;6.30;99.90
9915;DHT22;4996;48.746;9.174;2023-02-01T16:33:51;6.60;99.90
9915;DHT22;4996;48.746;9.174;2023-02-01T16:36:17;6.60;99.90
9915;DHT22;4996;48.746;9.174;2023-02-01T16:38:43;6.60;99.90
9915;DHT22;4996;48.746;9.174;2023-02-01T16:41:12;6.50;99.90
9915;DHT22;4996;48.746;9.174;2023-02-01T16:43:38;6.70;99.90
9915;DHT22;4996;48.746;9.174;2023-02-01T16:46:04;6.80;99.90
9915;DHT22;4996;48.746;9.174;2023-02-01T16:48:33;6.80;99.90
9915;DHT22;4996;48.746;9.174;2023-02-01T16:51:01;6.80;99.90
9915;DHT22;4996;48.746;9.174;2023-02-01T16:53:29;6.80;99.90
9915;DHT22;4996;48.746;9.174;2023-02-01T16:55:55;6.90;99.90
9915;DHT22;4996;48.746;9.174;2023-02-01T16:58:23;6.80;99.90
9915;DHT22;4996;48.746;9.174;2023-02-01T17:00:49;6.80;99.90
9915;DHT22;4996;48.746;9.174;2023-02-01T17:03:16;6.70;99.90
9915;DHT22;4996;48.746;9.174;2023-02-01T17:05:53;6.80;99.90
9915;DHT22;4996;48.746;9.174;2023-02-01T17:08:28;6.60;99.90
9915;DHT22;4996;48.746;9.174;2023-02-01T17:10:54;6.60;99.90
9915;DHT22;4996;48.746;9.174;2023-02-01T17:13:20;6.60;99.90
9915;DHT22;4996;48.746;9.174;2023-02-01T17:15:51;6.60;99.90
9915;DHT22;4996;48.746;9.174;2023-02-01T17:18:18;6.60;99.90
9915;DHT22;4996;48.746;9.174;2023-02-01T17:20:44;6.50;99.90
9915;DHT22;4996;48.746;9.174;2023-02-01T17:23:12;6.40;99.90
9915;DHT22;4996;48.746;9.174;2023-02-01T17:25:38;6.60;99.90
9915;DHT22;4996;48.746;9.174;2023-02-01T17:28:04;6.60;99.90
9915;DHT22;4996;48.746;9.174;2023-02-01T17:30:30;6.60;99.90
9915;DHT22;4996;48.746;9.174;2023-02-01T17:32:56;6.30;99.90
9915;DHT22;4996;48.746;9.174;2023-02-01T17:35:24;6.40;99.90
9915;DHT22;4996;48.746;9.174;2023-02-01T17:37:50;6.30;99.90
9915;DHT22;4996;48.746;9.174;2023-02-01T17:40:16;6.30;99.90
9915;DHT22;4996;48.746;9.174;2023-02-01T17:42:42;6.40;99.90
9915;DHT22;4996;48.746;9.174;2023-02-01T17:47:45;6.40;99.90
9915;DHT22;4996;48.746;9.174;2023-02-01T17:50:12;6.60;99.90
9915;DHT22;4996;48.746;9.174;2023-02-01T17:52:37;6.50;99.90
9915;DHT22;4996;48.746;9.174;2023-02-01T17:55:15;6.60;99.90
9915;DHT22;4996;48.746;9.174;2023-02-01T17:57:41;6.70;99.90
9915;DHT22;4996;48.746;9.174;2023-02-01T18:00:07;6.70;99.90
9915;DHT22;4996;48.746;9.174;2023-02-01T18:02:33;6.70;99.90
9915;DHT22;4996;48.746;9.174;2023-02-01T18:04:59;6.40;99.90
9915;DHT22;4996;48.746;9.174;2023-02-01T18:07:25;6.30;99.90
9915;DHT22;4996;48.746;9.174;2023-02-01T18:09:51;6.20;99.90
9915;DHT22;4996;48.746;9.174;2023-02-01T18:12:21;6.30;99.90
9915;DHT22;4996;48.746;9.174;2023-02-01T18:14:47;6.30;99.90
9915;DHT22;4996;48.746;9.174;2023-02-01T18:17:13;6.40;99.90
9915;DHT22;4996;48.746;9.174;2023-02-01T18:19:39;6.50;99.90
9915;DHT22;4996;48.746;9.174;2023-02-01T18:22:05;6.30;99.90
9915;DHT22;4996;48.746;9.174;2023-02-01T18:24:31;6.40;99.90
9915;DHT22;4996;48.746;9.174;2023-02-01T18:26:58;6.30;99.90
9915;DHT22;4996;48.746;9.174;2023-02-01T18:29:24;6.40;99.90
9915;DHT22;4996;48.746;9.174;2023-02-01T18:31:49;6.40;99.90
9915;DHT22;4996;48.746;9.174;2023-02-01T18:34:15;6.40;99.90
9915;DHT22;4996;48.746;9.174;2023-02-01T18:36:49;6.40;99.90
9915;DHT22;4996;48.746;9.174;2023-02-01T18:39:16;6.50;99.90
9915;DHT22;4996;48.746;9.174;2023-02-01T18:41:42;6.50;99.90
9915;DHT22;4996;48.746;9.174;2023-02-01T18:44:17;6.30;99.90
9915;DHT22;4996;48.746;9.174;2023-02-01T18:46:42;6.40;99.90
9915;DHT22;4996;48.746;9.174;2023-02-01T18:49:08;6.50;99.90
9915;DHT22;4996;48.746;9.174;2023-02-01T18:51:36;6.50;99.90
9915;DHT22;4996;48.746;9.174;2023-02-01T18:54:02;6.40;99.90